CheckWX is a tool to help pilots better visualize weather data.  It is not intended as a substitute for an official pre-flight weather briefing.

20:36:26 UTC

KMBY METAR
Omar N Bradley Airport
Moberly, Missouri, USA
Current

21 mins ago

KMBY 182015Z AUTO 33004KT 10SM OVC020 M02/M08 A3047 RMK AO2
Observed
Feb-18 @ 20:15 UTC
Wind
  • 330° at 4 KTS
Visibility
10 SM
Flight Rules
MVFR
Cloud Levels
  • Overcast at 2,000' AGL
Temperature
-2°C / 28°F
Dewpoint
-8°C / 18°F
Humidity
64%
Altimeter
30.47" Hg
Pressure
1031.81 hPa
Previous

41 mins ago

KMBY 181955Z AUTO 00000KT 10SM OVC020 M02/M08 A3046 RMK AO2
Observed
Feb-18 @ 19:55 UTC
Visibility
10 SM
Flight Rules
MVFR
Cloud Levels
  • Overcast at 2,000' AGL
Temperature
-2°C / 28°F
Dewpoint
-8°C / 18°F
Humidity
64%
Altimeter
30.46" Hg
Pressure
1031.51 hPa
Previous

1 hour ago

KMBY 181935Z AUTO 33006KT 10SM OVC020 M02/M07 A3046 RMK AO2
Observed
Feb-18 @ 19:35 UTC
Wind
  • 330° at 6 KTS
Visibility
10 SM
Flight Rules
MVFR
Cloud Levels
  • Overcast at 2,000' AGL
Temperature
-2°C / 28°F
Dewpoint
-7°C / 19°F
Humidity
69%
Altimeter
30.46" Hg
Pressure
1031.51 hPa